createdAt,value
2024-04-19T00:04:54.471Z,76.16
2024-04-19T00:09:53.330Z,74.96
2024-04-19T00:14:52.064Z,74.85
2024-04-19T00:19:53.462Z,74.65
2024-04-19T00:24:52.374Z,75.12
2024-04-19T00:29:51.155Z,75.27
2024-04-19T00:34:49.961Z,76.93
2024-04-19T00:39:51.046Z,77.57
2024-04-19T00:44:49.780Z,77.86
2024-04-19T00:49:48.718Z,77.96
2024-04-19T00:54:48.152Z,75.97
2024-04-19T00:59:49.190Z,76.20
2024-04-19T01:04:48.115Z,75.57
2024-04-19T01:09:48.342Z,76.94
2024-04-19T01:14:49.196Z,77.14
2024-04-19T01:19:47.963Z,77.80
2024-04-19T01:25:07.220Z,76.84
2024-04-19T01:30:08.936Z,75.70
2024-04-19T01:35:08.143Z,76.56
2024-04-19T01:40:07.435Z,77.93
2024-04-19T01:45:08.645Z,78.43
2024-04-19T01:50:07.946Z,77.83
2024-04-19T01:55:07.094Z,78.06
2024-04-19T02:00:08.874Z,77.35
2024-04-19T02:05:10.342Z,77.78
2024-04-19T02:10:09.837Z,78.27
2024-04-19T02:15:10.946Z,78.16
2024-04-19T02:20:09.988Z,75.83
2024-04-19T02:25:08.978Z,77.05
2024-04-19T02:30:24.619Z,77.77
2024-04-19T02:35:25.586Z,78.50
2024-04-19T02:40:24.378Z,77.11
2024-04-19T02:45:23.251Z,78.39
2024-04-19T02:50:22.017Z,78.08
2024-04-19T02:55:22.982Z,77.18
2024-04-19T03:00:21.846Z,77.75
2024-04-19T03:05:20.805Z,76.88
2024-04-19T03:10:19.687Z,77.24
2024-04-19T03:15:20.662Z,77.16
2024-04-19T03:20:19.577Z,76.06
2024-04-19T03:25:18.315Z,77.28
2024-04-19T03:30:28.270Z,76.30
2024-04-19T03:35:27.135Z,76.24
2024-04-19T03:40:25.989Z,77.22
2024-04-19T03:45:41.288Z,77.71
2024-04-19T03:50:44.457Z,76.07
2024-04-19T03:55:43.288Z,75.34
2024-04-19T04:00:42.535Z,75.48
2024-04-19T04:05:43.593Z,76.47
2024-04-19T04:10:42.508Z,76.21
2024-04-19T04:15:41.399Z,75.91
2024-04-19T04:20:40.321Z,76.37
2024-04-19T04:25:42.516Z,77.07
2024-04-19T04:30:43.195Z,76.69
2024-04-19T04:35:42.442Z,75.03
2024-04-19T04:40:43.444Z,74.92
2024-04-19T04:45:42.233Z,76.08
2024-04-19T04:50:41.245Z,75.84
2024-04-19T04:55:40.047Z,76.59
2024-04-19T05:00:41.586Z,76.78
2024-04-19T05:05:40.849Z,76.68
2024-04-19T05:10:39.897Z,76.72
2024-04-19T05:15:40.863Z,76.46
2024-04-19T05:20:39.610Z,77.40
2024-04-19T05:25:38.880Z,77.60
2024-04-19T05:30:37.773Z,78.27
2024-04-19T05:35:38.688Z,77.69
2024-04-19T05:40:38.034Z,77.10
2024-04-19T05:45:37.515Z,74.52
2024-04-19T05:50:38.564Z,74.10
2024-04-19T05:55:37.650Z,74.44
2024-04-19T06:00:37.287Z,74.55
2024-04-19T06:05:36.128Z,71.94
2024-04-19T06:10:37.877Z,70.17
2024-04-19T06:15:36.755Z,69.14
2024-04-19T06:20:37.514Z,68.94
2024-04-19T06:25:38.496Z,70.19
2024-04-19T06:30:37.342Z,69.63
2024-04-19T06:35:36.530Z,69.03
2024-04-19T06:40:35.535Z,69.74
2024-04-19T06:45:37.934Z,68.74
2024-04-19T06:50:36.918Z,68.29
2024-04-19T06:55:42.345Z,69.16
2024-04-19T07:00:54.176Z,68.38
2024-04-19T07:06:09.630Z,66.95
2024-04-19T07:11:08.564Z,67.04
2024-04-19T07:16:09.650Z,68.53
2024-04-19T07:21:08.600Z,67.41
2024-04-19T07:26:07.407Z,68.82
2024-04-19T07:31:06.383Z,66.96
2024-04-19T07:36:07.831Z,65.07
2024-04-19T07:41:07.250Z,64.90
2024-04-19T07:46:06.849Z,65.42
2024-04-19T07:51:10.908Z,64.82
2024-04-19T07:56:09.852Z,63.08
2024-04-19T08:01:08.807Z,62.38
2024-04-19T08:06:10.274Z,63.81
2024-04-19T08:11:09.486Z,63.14
2024-04-19T08:16:08.636Z,61.25
2024-04-19T08:21:09.777Z,62.83
2024-04-19T08:26:08.715Z,60.93
2024-04-19T08:31:07.586Z,60.29
2024-04-19T08:36:06.831Z,59.39
2024-04-19T08:41:16.021Z,60.00
2024-04-19T08:46:15.812Z,60.33
2024-04-19T08:51:23.216Z,57.06
2024-04-19T08:56:30.929Z,57.41
2024-04-19T09:01:29.938Z,57.86
2024-04-19T09:06:29.802Z,55.96
2024-04-19T09:11:30.940Z,54.86
2024-04-19T09:16:32.091Z,56.26
2024-04-19T09:21:31.013Z,55.13
2024-04-19T09:26:32.025Z,54.87
2024-04-19T09:31:30.986Z,53.39
2024-04-19T09:36:29.898Z,53.84
2024-04-19T09:41:29.241Z,52.09
2024-04-19T09:46:31.883Z,52.04
2024-04-19T09:51:36.573Z,53.10
2024-04-19T09:56:40.149Z,49.06
2024-04-19T10:01:41.581Z,48.19
2024-04-19T10:06:43.399Z,48.84
2024-04-19T10:11:43.532Z,50.31
2024-04-19T10:16:44.477Z,51.05
2024-04-19T10:21:43.435Z,48.69
2024-04-19T10:26:42.289Z,45.91
2024-04-19T10:31:41.156Z,46.84
2024-04-19T10:36:42.225Z,48.70
2024-04-19T10:41:46.743Z,45.57
2024-04-19T10:46:48.662Z,45.43
2024-04-19T10:51:49.831Z,46.32
2024-04-19T10:56:48.778Z,42.96
2024-04-19T11:01:48.514Z,42.05
2024-04-19T11:06:47.394Z,43.22
2024-04-19T11:11:48.835Z,43.42
2024-04-19T11:16:47.694Z,42.59
2024-04-19T11:21:47.223Z,42.87
2024-04-19T11:26:48.267Z,43.24
2024-04-19T11:31:48.299Z,41.72
2024-04-19T11:36:47.647Z,41.79
2024-04-19T11:41:48.604Z,42.10
2024-04-19T11:46:48.877Z,36.19
2024-04-19T11:51:49.043Z,37.03
2024-04-19T11:56:50.000Z,36.25
2024-04-19T12:01:48.938Z,36.29
2024-04-19T12:06:47.901Z,35.65
2024-04-19T12:12:19.349Z,35.93
2024-04-19T12:17:17.005Z,36.21
2024-04-19T12:22:20.826Z,36.37
2024-04-19T12:27:24.067Z,35.25
2024-04-19T12:32:25.855Z,33.34
2024-04-19T12:37:27.713Z,33.43
2024-04-19T12:42:28.691Z,33.53
2024-04-19T12:47:31.897Z,34.09
2024-04-19T12:52:34.284Z,33.67
2024-04-19T12:57:35.559Z,33.94
2024-04-19T13:02:39.281Z,34.87
2024-04-19T13:07:40.934Z,34.02
2024-04-19T13:12:39.968Z,33.89
2024-04-19T13:17:43.488Z,34.23
2024-04-19T13:22:44.069Z,35.15
2024-04-19T13:27:43.453Z,35.06
2024-04-19T13:32:47.042Z,36.18
2024-04-19T13:37:46.305Z,35.51
2024-04-19T13:42:47.098Z,34.83
2024-04-19T13:52:55.545Z,34.36
2024-04-19T13:58:02.591Z,34.59
2024-04-19T14:03:04.022Z,34.86
2024-04-19T14:08:03.132Z,35.69
2024-04-19T14:13:04.069Z,35.10
2024-04-19T14:18:06.669Z,34.92
2024-04-19T14:23:05.724Z,35.45
2024-04-19T14:28:05.021Z,35.93
2024-04-19T14:33:06.794Z,35.44
2024-04-19T14:38:06.134Z,35.67
2024-04-19T14:43:07.920Z,35.20
2024-04-19T14:48:09.538Z,34.48
2024-04-19T14:53:10.627Z,35.26
2024-04-19T14:58:10.338Z,35.06
2024-04-19T15:03:13.534Z,34.89
2024-04-19T15:08:12.752Z,33.78
2024-04-19T15:13:11.963Z,33.47
2024-04-19T15:18:16.769Z,33.22
2024-04-19T15:23:15.864Z,33.01
2024-04-19T15:28:15.194Z,33.32
2024-04-19T15:33:16.942Z,33.37
2024-04-19T15:38:16.176Z,31.27
2024-04-19T15:43:15.284Z,28.58
2024-04-19T15:48:17.380Z,30.77
2024-04-19T15:53:19.290Z,32.20
2024-04-19T15:58:18.373Z,32.54
2024-04-19T16:03:19.836Z,32.48
2024-04-19T16:08:19.519Z,33.14
2024-04-19T16:13:18.748Z,34.06
2024-04-19T16:18:19.996Z,34.42
2024-04-19T16:23:19.192Z,34.32
2024-04-19T16:28:18.268Z,35.24
2024-04-19T16:33:17.304Z,35.57
2024-04-19T16:38:18.776Z,36.55
2024-04-19T16:43:19.541Z,37.75
2024-04-19T16:48:18.880Z,38.24
2024-04-19T16:53:21.849Z,38.38
2024-04-19T16:58:20.916Z,38.59
2024-04-19T17:03:20.199Z,38.63
2024-04-19T17:08:21.726Z,38.40
2024-04-19T17:13:22.918Z,37.66
2024-04-19T17:18:22.164Z,39.08
2024-04-19T17:23:23.856Z,39.34
2024-04-19T17:28:23.064Z,39.55
2024-04-19T17:33:24.443Z,38.79
2024-04-19T17:38:25.732Z,38.92
2024-04-19T17:43:24.958Z,38.64
2024-04-19T17:48:24.202Z,39.28
2024-04-19T17:53:23.392Z,39.56
2024-04-19T17:58:24.704Z,39.43
2024-04-19T18:03:23.760Z,39.92
2024-04-19T18:08:22.664Z,39.81
2024-04-19T18:13:24.010Z,40.08
2024-04-19T18:18:34.040Z,40.42
2024-04-19T18:23:33.123Z,40.23
2024-04-19T18:28:34.264Z,40.71
2024-04-19T18:33:33.167Z,40.85
2024-04-19T18:38:32.966Z,41.33
2024-04-19T18:43:34.228Z,41.66
2024-04-19T18:48:36.286Z,41.66
2024-04-19T18:53:38.718Z,41.96
2024-04-19T18:58:40.392Z,40.25
2024-04-19T19:03:39.445Z,40.37
2024-04-19T19:08:38.325Z,40.50
2024-04-19T19:13:42.007Z,41.51
2024-04-19T19:18:48.726Z,42.90
2024-04-19T19:23:48.189Z,45.58
2024-04-19T19:28:48.426Z,46.43
2024-04-19T19:33:49.652Z,48.27
2024-04-19T19:38:50.147Z,50.26
2024-04-19T19:43:49.123Z,50.48
2024-04-19T19:48:50.646Z,51.58
2024-04-19T19:53:49.758Z,51.60
2024-04-19T19:58:48.981Z,52.21
2024-04-19T20:04:06.592Z,51.37
2024-04-19T20:09:05.837Z,51.18
2024-04-19T20:14:04.889Z,51.05
2024-04-19T20:19:06.164Z,50.89
2024-04-19T20:24:05.319Z,51.06
2024-04-19T20:29:04.476Z,51.62
2024-04-19T20:34:06.483Z,51.52
2024-04-19T20:39:08.080Z,52.40
2024-04-19T20:44:07.362Z,54.25
2024-04-19T20:49:06.425Z,49.38
2024-04-19T20:54:05.582Z,47.65
2024-04-19T20:59:06.762Z,47.08
2024-04-19T21:04:06.061Z,46.47
2024-04-19T21:09:05.272Z,46.93
2024-04-19T21:14:04.394Z,46.62
2024-04-19T21:19:05.592Z,46.06
2024-04-19T21:24:05.247Z,47.04
2024-04-19T21:29:04.455Z,47.34
2024-04-19T21:34:08.618Z,46.69
2024-04-19T21:39:07.713Z,47.06
2024-04-19T21:44:06.905Z,47.50
2024-04-19T21:49:08.028Z,47.95
2024-04-19T21:54:07.069Z,48.90
2024-04-19T21:59:09.890Z,48.90
2024-04-19T22:04:11.407Z,50.03
2024-04-19T22:09:10.551Z,51.33
2024-04-19T22:14:09.641Z,52.27
2024-04-19T22:19:10.815Z,54.33
2024-04-19T22:24:10.207Z,54.80
2024-04-19T22:29:09.306Z,55.30
2024-04-19T22:34:08.508Z,54.24
2024-04-19T22:39:09.854Z,55.45
2024-04-19T22:44:08.849Z,56.04
2024-04-19T22:49:08.035Z,56.90
2024-04-19T22:54:07.250Z,57.61
2024-04-19T22:59:08.407Z,57.73
2024-04-19T23:04:07.802Z,58.71
2024-04-19T23:09:09.400Z,59.35
2024-04-19T23:14:10.869Z,59.13
2024-04-19T23:19:10.051Z,57.05
2024-04-19T23:24:11.954Z,58.91
2024-04-19T23:29:14.756Z,59.79
2024-04-19T23:34:15.780Z,57.61
2024-04-19T23:39:17.415Z,58.76
2024-04-19T23:44:18.737Z,60.89
2024-04-19T23:49:17.850Z,59.99
2024-04-19T23:54:19.193Z,59.18
2024-04-19T23:59:20.371Z,58.17
